Time;durP1;ratioP1;P1;durP2;ratioP2;P2;SDS_P1;SDS_P2;PMS_P1;PMS_P2;Temp;Humidity;BMP_temperature;BMP_pressure;BME280_temperature;BME280_humidity;BME280_pressure;Samples;Min_cycle;Max_cycle;Signal;HPM_P1;HPM_P2
2023/07/15 00:00:57;;;;;;;5.97;5.47;;;22.90;99.90;;;;;;5072675;28;20798;-76
2023/07/15 00:03:23;;;;;;;6.27;4.87;;;22.80;99.90;;;;;;5073028;28;20839;-76
2023/07/15 00:05:50;;;;;;;5.23;4.83;;;22.70;99.90;;;;;;5077766;28;20443;-77
2023/07/15 00:08:17;;;;;;;5.40;4.90;;;22.60;99.90;;;;;;5079452;28;20817;-75
2023/07/15 00:10:46;;;;;;;5.03;4.63;;;22.60;99.90;;;;;;5083679;28;20510;-78
2023/07/15 00:13:15;;;;;;;4.77;4.37;;;22.60;99.90;;;;;;5078709;28;20862;-77
2023/07/15 00:15:44;;;;;;;4.83;4.43;;;22.50;99.90;;;;;;5079069;28;20441;-76
2023/07/15 00:18:12;;;;;;;5.17;4.77;;;22.50;99.90;;;;;;5078186;28;20440;-76
2023/07/15 00:20:39;;;;;;;4.90;4.50;;;22.60;99.90;;;;;;5079127;28;20437;-77
2023/07/15 00:23:13;;;;;;;5.20;4.80;;;22.30;99.90;;;;;;5084479;28;21054;-77
2023/07/15 00:25:40;;;;;;;4.93;4.40;;;22.30;99.90;;;;;;5084729;28;20448;-76
2023/07/15 00:28:29;;;;;;;5.20;4.70;;;22.30;99.90;;;;;;5088117;28;20540;-76
2023/07/15 00:31:08;;;;;;;5.13;4.73;;;22.20;99.90;;;;;;5094764;28;20474;-77
2023/07/15 00:33:46;;;;;;;5.30;4.90;;;21.70;99.90;;;;;;5091955;28;20472;-75
2023/07/15 00:36:14;;;;;;;4.57;4.17;;;22.30;99.90;;;;;;5094677;28;20429;-74
2023/07/15 00:38:45;;;;;;;4.73;4.20;;;22.30;99.90;;;;;;5093309;28;20479;-75
2023/07/15 00:41:22;;;;;;;4.83;4.43;;;22.30;99.90;;;;;;5094765;28;20467;-75
2023/07/15 00:43:58;;;;;;;4.43;4.13;;;22.30;99.90;;;;;;5094654;28;20751;-76
2023/07/15 00:47:21;;;;;;;4.27;3.97;;;22.40;99.90;;;;;;5092352;28;20453;-76
2023/07/15 00:49:54;;;;;;;4.17;3.87;;;22.40;99.90;;;;;;5024270;28;20483;-79
2023/07/15 00:52:22;;;;;;;4.37;3.97;;;22.30;99.90;;;;;;5078098;28;20464;-76
2023/07/15 00:54:54;;;;;;;4.00;3.60;;;22.40;99.90;;;;;;5087269;28;20468;-76
2023/07/15 00:57:22;;;;;;;3.97;3.67;;;22.50;99.90;;;;;;5086577;28;20782;-79
2023/07/15 00:59:52;;;;;;;4.03;3.73;;;22.50;99.90;;;;;;5091582;28;20552;-75
2023/07/15 01:02:22;;;;;;;4.90;4.43;;;22.50;99.90;;;;;;5089865;28;20444;-76
2023/07/15 01:04:53;;;;;;;5.10;3.80;;;22.50;99.90;;;;;;5088206;28;20465;-76
2023/07/15 01:07:23;;;;;;;3.50;3.13;;;22.50;99.90;;;;;;5090490;28;20425;-75
2023/07/15 01:09:53;;;;;;;4.17;3.87;;;22.40;99.90;;;;;;5092476;28;21078;-77
2023/07/15 01:12:27;;;;;;;4.17;3.87;;;22.40;99.90;;;;;;5096399;28;20465;-76
2023/07/15 01:14:57;;;;;;;4.17;3.87;;;22.50;99.90;;;;;;5097290;28;20457;-75
2023/07/15 01:17:28;;;;;;;3.93;3.50;;;22.50;99.90;;;;;;5093007;28;20493;-76
2023/07/15 01:20:02;;;;;;;4.17;3.77;;;22.50;99.90;;;;;;5090596;28;20421;-76
2023/07/15 01:22:37;;;;;;;3.50;3.30;;;22.40;99.90;;;;;;5093504;28;20443;-76
2023/07/15 01:25:23;;;;;;;4.00;3.70;;;22.40;99.90;;;;;;5093870;28;20467;-78
2023/07/15 01:27:57;;;;;;;4.07;3.77;;;22.40;99.90;;;;;;5094394;28;20416;-75
2023/07/15 01:30:35;;;;;;;3.43;3.23;;;22.40;99.90;;;;;;5088440;28;21011;-77
2023/07/15 01:33:37;;;;;;;4.23;3.93;;;22.30;99.90;;;;;;5080923;28;20773;-77
2023/07/15 01:36:24;;;;;;;4.50;4.00;;;22.40;99.90;;;;;;5082438;28;20463;-77
2023/07/15 01:39:14;;;;;;;4.73;4.33;;;22.40;99.90;;;;;;5083121;28;20502;-75
2023/07/15 01:41:47;;;;;;;3.97;3.73;;;22.40;99.90;;;;;;5082967;28;20828;-76
2023/07/15 01:44:20;;;;;;;3.87;3.53;;;22.40;99.90;;;;;;5082822;28;20464;-76
2023/07/15 01:46:56;;;;;;;6.00;3.97;;;22.40;99.90;;;;;;5078897;28;20449;-77
2023/07/15 01:49:34;;;;;;;4.07;3.77;;;22.30;99.90;;;;;;5075359;28;21009;-77
2023/07/15 01:52:11;;;;;;;4.13;3.83;;;22.30;99.90;;;;;;5077312;28;20445;-76
2023/07/15 01:54:46;;;;;;;4.07;3.77;;;22.30;99.90;;;;;;5077789;28;20471;-78
2023/07/15 01:57:22;;;;;;;4.20;3.90;;;22.30;99.90;;;;;;5079379;28;20439;-76
2023/07/15 01:59:58;;;;;;;4.23;3.93;;;22.30;99.90;;;;;;5095077;28;20437;-77
2023/07/15 02:02:28;;;;;;;3.93;3.70;;;22.30;99.90;;;;;;5084225;28;21129;-77
2023/07/15 02:04:55;;;;;;;4.03;3.73;;;22.30;99.90;;;;;;5089605;28;20472;-78
2023/07/15 02:07:27;;;;;;;5.60;4.23;;;22.20;99.90;;;;;;5087915;28;20465;-77
2023/07/15 02:10:00;;;;;;;3.93;3.63;;;22.00;99.90;;;;;;5088441;28;20477;-76
2023/07/15 02:12:27;;;;;;;4.60;4.20;;;21.90;99.90;;;;;;5090395;28;20471;-74
2023/07/15 02:14:55;;;;;;;4.67;4.27;;;21.80;99.90;;;;;;5089622;28;20465;-77
2023/07/15 02:17:23;;;;;;;4.47;4.07;;;21.80;99.90;;;;;;5078779;28;20453;-76
2023/07/15 02:19:52;;;;;;;4.40;3.87;;;21.70;99.90;;;;;;5080995;28;20528;-75
2023/07/15 02:22:20;;;;;;;4.67;4.27;;;21.70;99.90;;;;;;5083227;28;20452;-76
2023/07/15 02:24:49;;;;;;;5.10;4.30;;;21.60;99.90;;;;;;5084821;28;20481;-75
2023/07/15 02:27:20;;;;;;;5.50;5.10;;;21.50;99.90;;;;;;5078319;28;20468;-75
2023/07/15 02:29:53;;;;;;;4.83;4.53;;;21.40;99.90;;;;;;5077295;28;20495;-75
2023/07/15 02:32:49;;;;;;;4.60;4.30;;;21.40;99.90;;;;;;5077155;28;20480;-75
2023/07/15 02:35:23;;;;;;;4.40;4.00;;;21.30;99.90;;;;;;5074349;28;20836;-76
2023/07/15 02:37:58;;;;;;;4.73;4.30;;;21.30;99.90;;;;;;5074351;28;20472;-76
2023/07/15 02:40:33;;;;;;;5.77;4.30;;;21.20;99.90;;;;;;5073734;28;20622;-76
2023/07/15 02:43:07;;;;;;;5.43;4.27;;;21.10;99.90;;;;;;5074486;28;20448;-76
2023/07/15 02:45:45;;;;;;;4.90;4.50;;;21.00;99.90;;;;;;5073811;28;20456;-76
2023/07/15 02:48:17;;;;;;;5.07;4.67;;;21.00;99.90;;;;;;5072665;28;20464;-77
2023/07/15 02:51:04;;;;;;;4.90;4.60;;;21.00;99.90;;;;;;5078189;28;20475;-77
2023/07/15 02:53:41;;;;;;;5.07;4.70;;;20.90;99.90;;;;;;5079945;28;20471;-76
2023/07/15 02:56:12;;;;;;;5.37;4.90;;;20.90;99.90;;;;;;5081337;28;20483;-75
2023/07/15 02:58:47;;;;;;;4.70;4.23;;;20.80;99.90;;;;;;5084157;28;20456;-75
2023/07/15 03:01:21;;;;;;;5.13;4.73;;;20.90;99.90;;;;;;5085365;28;20960;-77
2023/07/15 03:03:56;;;;;;;5.43;4.73;;;20.90;99.90;;;;;;5087701;28;20469;-78
2023/07/15 03:06:25;;;;;;;5.20;4.80;;;20.80;99.90;;;;;;5090319;28;20447;-77
2023/07/15 03:09:05;;;;;;;4.77;4.37;;;20.80;99.90;;;;;;5072545;28;20456;-74
2023/07/15 03:11:45;;;;;;;6.50;5.50;;;20.80;99.90;;;;;;5091332;28;20471;-77
2023/07/15 03:14:16;;;;;;;5.33;4.83;;;20.80;99.90;;;;;;5087853;28;20469;-77
2023/07/15 03:16:48;;;;;;;4.77;4.37;;;20.80;99.90;;;;;;5089611;28;20486;-76
2023/07/15 03:19:20;;;;;;;6.20;5.47;;;20.70;99.90;;;;;;5078741;28;20537;-76
2023/07/15 03:21:54;;;;;;;5.23;4.90;;;20.70;99.90;;;;;;5076263;28;20457;-77
2023/07/15 03:24:30;;;;;;;5.00;4.60;;;20.70;99.90;;;;;;5077495;28;20556;-77
2023/07/15 03:27:04;;;;;;;5.23;4.87;;;20.60;99.90;;;;;;5075677;28;20452;-77
2023/07/15 03:29:39;;;;;;;5.10;4.70;;;20.60;99.90;;;;;;5075090;28;20587;-77
2023/07/15 03:32:11;;;;;;;5.13;4.73;;;20.50;99.90;;;;;;5076124;28;20455;-78
2023/07/15 03:34:44;;;;;;;5.20;4.80;;;20.30;99.90;;;;;;5075114;28;21036;-76
2023/07/15 03:37:18;;;;;;;5.40;4.93;;;20.80;99.90;;;;;;5073850;28;20480;-77
2023/07/15 03:39:55;;;;;;;5.10;4.60;;;20.50;99.90;;;;;;5073539;28;20471;-76
2023/07/15 03:42:29;;;;;;;4.93;4.43;;;20.50;99.90;;;;;;5073697;28;20564;-77
2023/07/15 03:45:05;;;;;;;5.10;4.63;;;20.40;99.90;;;;;;5074621;28;20475;-76
2023/07/15 03:47:46;;;;;;;5.20;4.40;;;20.40;99.90;;;;;;5075827;28;20453;-76
2023/07/15 03:50:24;;;;;;;5.17;4.73;;;20.40;99.90;;;;;;5074422;28;20477;-76
2023/07/15 03:53:02;;;;;;;5.70;5.07;;;20.40;99.90;;;;;;5082610;28;20478;-75
2023/07/15 03:55:33;;;;;;;5.30;4.83;;;20.30;99.90;;;;;;5084973;28;20479;-75
2023/07/15 03:58:01;;;;;;;5.30;4.90;;;20.30;99.90;;;;;;5085041;28;20460;-75
2023/07/15 04:00:36;;;;;;;5.53;5.13;;;20.30;99.90;;;;;;5085857;28;20452;-76
2023/07/15 04:03:10;;;;;;;7.00;4.83;;;20.30;99.90;;;;;;5084975;28;20424;-76
2023/07/15 04:05:45;;;;;;;5.50;5.10;;;20.30;99.90;;;;;;5086636;28;20474;-76
2023/07/15 04:08:22;;;;;;;6.07;5.47;;;20.20;99.90;;;;;;5089007;28;20448;-76
2023/07/15 04:11:01;;;;;;;7.53;5.57;;;20.20;99.90;;;;;;5089435;28;20491;-77
2023/07/15 04:13:37;;;;;;;5.90;5.30;;;20.20;99.90;;;;;;5092139;28;20472;-75
2023/07/15 04:16:33;;;;;;;5.70;5.20;;;20.20;99.90;;;;;;5089768;28;20458;-77
2023/07/15 04:19:06;;;;;;;8.03;5.47;;;20.20;99.90;;;;;;5087049;28;20450;-78
2023/07/15 04:21:36;;;;;;;5.80;5.30;;;20.20;99.90;;;;;;5087883;28;20463;-76
2023/07/15 04:24:27;;;;;;;5.20;4.80;;;20.20;99.90;;;;;;5087603;28;21145;-77
2023/07/15 04:30:48;;;;;;;4.93;4.53;;;20.30;99.90;;;;;;5042323;28;20471;-77
2023/07/15 04:33:25;;;;;;;5.73;5.23;;;20.40;99.90;;;;;;5077236;28;20483;-76
2023/07/15 04:35:55;;;;;;;7.53;6.93;;;20.40;99.90;;;;;;5085700;28;20471;-76
2023/07/15 04:38:36;;;;;;;5.30;4.90;;;20.40;99.90;;;;;;5084909;28;20455;-76
2023/07/15 04:41:12;;;;;;;5.67;5.13;;;20.40;99.90;;;;;;5085295;28;20447;-76
2023/07/15 04:43:48;;;;;;;6.80;5.23;;;20.40;99.90;;;;;;5085740;28;20541;-77
2023/07/15 04:46:15;;;;;;;5.40;5.03;;;20.50;99.90;;;;;;5087143;28;20438;-79
2023/07/15 04:49:09;;;;;;;5.67;5.10;;;20.60;99.90;;;;;;5083137;28;20467;-77
2023/07/15 04:51:50;;;;;;;5.10;4.70;;;20.60;99.90;;;;;;5086446;28;20456;-78
2023/07/15 04:54:24;;;;;;;6.93;5.10;;;20.70;99.90;;;;;;5083426;28;20847;-78
2023/07/15 04:57:00;;;;;;;6.17;5.20;;;20.70;99.90;;;;;;5084954;28;20455;-77
2023/07/15 04:59:34;;;;;;;5.47;5.03;;;20.80;99.90;;;;;;5085380;28;20450;-76
2023/07/15 05:02:05;;;;;;;4.60;4.20;;;20.80;99.90;;;;;;5085252;28;20467;-77
2023/07/15 05:04:42;;;;;;;6.10;5.70;;;20.90;99.90;;;;;;5084947;28;20469;-77
2023/07/15 05:07:09;;;;;;;4.97;3.90;;;21.00;99.90;;;;;;5084961;28;20940;-77
2023/07/15 05:09:37;;;;;;;4.60;4.20;;;21.10;99.90;;;;;;5079091;28;20503;-78
2023/07/15 05:12:06;;;;;;;5.00;4.67;;;21.10;99.90;;;;;;5079670;28;20429;-78
2023/07/15 05:14:36;;;;;;;4.17;3.77;;;21.20;99.90;;;;;;5077457;28;20461;-78
2023/07/15 05:17:04;;;;;;;4.63;4.33;;;21.30;99.90;;;;;;5081689;28;20499;-78
2023/07/15 05:19:35;;;;;;;9.70;8.80;;;21.40;99.90;;;;;;5084929;28;20452;-77
2023/07/15 05:22:02;;;;;;;5.83;5.33;;;21.50;99.90;;;;;;5086546;28;20468;-77
2023/07/15 05:24:30;;;;;;;4.77;4.47;;;21.60;99.90;;;;;;5088042;28;20480;-75
2023/07/15 05:27:06;;;;;;;5.33;4.90;;;21.70;99.90;;;;;;5085969;28;20452;-79
2023/07/15 05:29:38;;;;;;;5.70;4.60;;;22.00;99.90;;;;;;5081904;28;20919;-76
2023/07/15 05:32:26;;;;;;;4.90;4.60;;;21.90;99.90;;;;;;5080030;28;20507;-77
2023/07/15 05:34:58;;;;;;;4.10;3.70;;;22.10;99.90;;;;;;5078588;28;20991;-76
2023/07/15 05:37:40;;;;;;;5.50;5.00;;;22.20;99.90;;;;;;5079399;28;20457;-76
2023/07/15 05:40:31;;;;;;;4.43;4.20;;;22.30;99.90;;;;;;5085824;28;20452;-76
2023/07/15 05:42:58;;;;;;;4.40;4.10;;;22.40;99.90;;;;;;5091192;28;20455;-78
2023/07/15 05:46:00;;;;;;;4.63;4.33;;;22.60;99.90;;;;;;5093532;28;20517;-75
2023/07/15 05:48:34;;;;;;;5.07;4.67;;;22.70;99.90;;;;;;5092204;28;20451;-78
2023/07/15 05:51:50;;;;;;;4.93;4.50;;;22.80;99.90;;;;;;5077489;28;20479;-78
2023/07/15 05:57:15;;;;;;;4.43;4.13;;;23.10;99.90;;;;;;5065672;28;20445;-80
2023/07/15 05:59:57;;;;;;;4.30;3.93;;;23.30;99.90;;;;;;5076499;28;20490;-78
2023/07/15 06:02:32;;;;;;;6.10;4.57;;;23.40;99.90;;;;;;5079098;28;20452;-76
2023/07/15 06:05:21;;;;;;;4.30;4.00;;;23.50;99.90;;;;;;5085072;28;20539;-77
2023/07/15 06:07:59;;;;;;;4.53;4.07;;;23.60;99.90;;;;;;5079565;28;20437;-77
2023/07/15 06:10:33;;;;;;;4.70;4.37;;;23.80;99.90;;;;;;5085262;28;20480;-79
2023/07/15 06:13:16;;;;;;;5.53;4.30;;;23.90;99.90;;;;;;5056773;28;20464;-78
2023/07/15 06:16:24;;;;;;;4.47;4.07;;;24.00;99.90;;;;;;5056127;28;20507;-78
2023/07/15 06:18:57;;;;;;;4.50;4.20;;;24.20;99.90;;;;;;5056470;28;20453;-79
2023/07/15 06:21:43;;;;;;;3.93;3.63;;;24.30;99.90;;;;;;5063518;28;20506;-79
2023/07/15 06:24:21;;;;;;;4.20;3.80;;;24.40;99.90;;;;;;5077186;28;20468;-79
2023/07/15 06:27:06;;;;;;;4.67;4.27;;;24.40;99.90;;;;;;5077045;28;20425;-79
2023/07/15 06:29:40;;;;;;;7.77;7.13;;;24.20;99.90;;;;;;5079758;28;20468;-80
2023/07/15 06:32:28;;;;;;;3.73;3.43;;;24.70;99.90;;;;;;5078451;28;20452;-78
2023/07/15 06:38:49;;;;;;;4.40;4.00;;;25.00;99.90;;;;;;5046513;28;20441;-77
2023/07/15 06:41:26;;;;;;;3.87;3.57;;;25.20;99.90;;;;;;5053114;28;20470;-78
2023/07/15 06:44:07;;;;;;;4.10;3.80;;;25.30;99.90;;;;;;5054021;28;20453;-77
2023/07/15 06:46:42;;;;;;;7.67;6.97;;;25.40;99.90;;;;;;5053800;28;20461;-76
2023/07/15 06:49:22;;;;;;;4.00;3.70;;;25.50;99.90;;;;;;5053502;28;20453;-77
2023/07/15 06:52:00;;;;;;;3.57;3.37;;;25.60;99.90;;;;;;5052242;28;20481;-77
2023/07/15 06:54:31;;;;;;;3.53;3.27;;;25.70;99.90;;;;;;5052867;28;20492;-78
2023/07/15 06:57:09;;;;;;;3.47;3.27;;;25.90;99.90;;;;;;5053162;28;20458;-77
2023/07/15 06:59:58;;;;;;;3.80;3.50;;;25.90;99.90;;;;;;5054148;28;20453;-76
2023/07/15 07:02:47;;;;;;;4.10;3.80;;;26.10;99.90;;;;;;5055721;28;20503;-78
2023/07/15 07:08:21;;;;;;;3.30;3.10;;;26.40;99.90;;;;;;5048696;28;20528;-77
2023/07/15 07:10:59;;;;;;;3.50;3.20;;;26.60;99.90;;;;;;5054346;28;21210;-77
2023/07/15 07:13:40;;;;;;;3.87;3.57;;;26.60;99.90;;;;;;5057332;28;20460;-77
2023/07/15 07:16:19;;;;;;;3.70;3.43;;;26.90;99.90;;;;;;5054647;28;20445;-79
2023/07/15 07:32:02;;;;;;;3.40;3.10;;;27.70;99.90;;;;;;5029507;28;20530;-79
2023/07/15 07:34:42;;;;;;;3.90;3.60;;;27.80;99.90;;;;;;5073445;28;20511;-76
2023/07/15 07:37:18;;;;;;;3.60;3.40;;;28.00;99.90;;;;;;5073625;28;20887;-76
2023/07/15 07:39:51;;;;;;;3.37;3.10;;;28.20;99.90;;;;;;5074206;28;20543;-76
2023/07/15 07:42:29;;;;;;;3.33;3.13;;;28.40;99.90;;;;;;5073783;28;20483;-75
2023/07/15 07:45:02;;;;;;;3.50;3.20;;;28.50;99.90;;;;;;5074148;28;20841;-79
2023/07/15 07:48:04;;;;;;;3.13;2.93;;;28.60;99.90;;;;;;5073472;28;20449;-77
2023/07/15 07:51:11;;;;;;;3.60;3.40;;;28.70;99.90;;;;;;5041266;28;20903;-76
2023/07/15 08:00:28;;;;;;;3.83;3.10;;;29.20;99.90;;;;;;5060314;28;21034;-78
2023/07/15 08:07:12;;;;;;;3.40;3.13;;;29.40;99.90;;;;;;5072296;28;20425;-78
2023/07/15 08:10:53;;;;;;;3.20;2.90;;;29.60;99.90;;;;;;4969931;28;20432;-79
2023/07/15 08:14:28;;;;;;;3.77;2.80;;;29.90;99.90;;;;;;5020295;28;20909;-78
2023/07/15 08:21:14;;;;;;;3.50;3.20;;;30.20;99.90;;;;;;5065076;28;20439;-77
2023/07/15 08:27:53;;;;;;;;;;;;;;;;;;;;;
2023/07/15 08:30:27;;;;;;;3.30;3.10;;;30.40;98.20;;;;;;5054717;28;20446;-77
2023/07/15 08:33:20;;;;;;;3.90;3.40;;;30.40;97.70;;;;;;5058636;28;20468;-78
2023/07/15 08:36:05;;;;;;;3.57;3.27;;;30.50;97.70;;;;;;5059647;28;20488;-78
2023/07/15 08:44:42;;;;;;;3.00;2.80;;;30.90;95.90;;;;;;5058601;28;20864;-77
2023/07/15 08:47:26;;;;;;;3.10;2.83;;;31.00;94.70;;;;;;5060343;28;20516;-79
2023/07/15 08:50:18;;;;;;;3.33;3.13;;;31.00;94.30;;;;;;5061565;28;20437;-78
2023/07/15 08:53:05;;;;;;;4.53;3.00;;;31.20;94.50;;;;;;5061238;28;20458;-80
2023/07/15 08:56:24;;;;;;;3.20;2.90;;;31.20;94.30;;;;;;5061492;28;20457;-78
2023/07/15 09:03:03;;;;;;;3.20;2.97;;;31.50;93.50;;;;;;4939621;29;20436;-79
2023/07/15 09:05:43;;;;;;;3.20;2.93;;;31.60;92.50;;;;;;4920796;28;20573;-78
2023/07/15 09:08:20;;;;;;;3.40;3.20;;;31.70;91.50;;;;;;4975206;28;20468;-76
2023/07/15 09:10:55;;;;;;;3.13;2.90;;;31.80;91.20;;;;;;4975979;28;20511;-77
2023/07/15 09:13:35;;;;;;;3.20;2.70;;;31.80;90.20;;;;;;5026457;28;20449;-77
2023/07/15 09:16:08;;;;;;;3.00;2.80;;;32.00;90.00;;;;;;5056610;28;20457;-78
2023/07/15 09:18:47;;;;;;;3.10;2.70;;;32.50;89.70;;;;;;5056023;28;20453;-77
2023/07/15 09:21:28;;;;;;;3.63;2.60;;;32.80;86.60;;;;;;5061953;28;20440;-78
2023/07/15 09:24:12;;;;;;;4.57;3.30;;;33.00;84.50;;;;;;5076167;28;20476;-77
2023/07/15 09:26:55;;;;;;;3.10;2.90;;;33.30;84.00;;;;;;5075595;28;20471;-77
2023/07/15 09:29:53;;;;;;;3.00;2.60;;;33.50;82.70;;;;;;5077363;28;20457;-78
2023/07/15 09:32:40;;;;;;;3.10;2.80;;;33.80;81.50;;;;;;5078377;28;20492;-78
2023/07/15 09:35:35;;;;;;;2.67;2.23;;;34.00;79.80;;;;;;5080619;28;20477;-77
2023/07/15 09:38:16;;;;;;;2.50;2.40;;;34.20;77.80;;;;;;5075115;28;20995;-78
2023/07/15 09:44:03;;;;;;;2.70;2.47;;;34.70;75.60;;;;;;5073238;28;20473;-77
2023/07/15 09:46:57;;;;;;;2.80;2.60;;;34.50;73.80;;;;;;5072198;28;20457;-77
2023/07/15 09:49:36;;;;;;;2.57;2.37;;;35.00;73.50;;;;;;5075267;28;20479;-76
2023/07/15 09:52:27;;;;;;;2.57;2.37;;;34.90;72.40;;;;;;5077722;28;20898;-77
2023/07/15 09:55:15;;;;;;;3.20;2.93;;;34.90;72.90;;;;;;5092785;28;20471;-75
2023/07/15 09:57:47;;;;;;;3.00;2.80;;;35.10;71.30;;;;;;5084716;28;20468;-77
2023/07/15 10:00:18;;;;;;;2.97;2.77;;;35.20;70.50;;;;;;5074053;28;21161;-76
2023/07/15 10:02:55;;;;;;;3.10;2.90;;;35.40;69.90;;;;;;5090738;28;20449;-77
2023/07/15 10:05:32;;;;;;;2.50;2.40;;;35.70;69.20;;;;;;5074663;28;20475;-76
2023/07/15 10:08:12;;;;;;;3.73;2.80;;;36.00;67.40;;;;;;5085552;28;20448;-77
2023/07/15 10:10:44;;;;;;;4.13;2.90;;;36.20;67.20;;;;;;5077655;28;20541;-77
2023/07/15 10:13:17;;;;;;;3.43;3.13;;;36.40;66.10;;;;;;5075862;28;20516;-78
2023/07/15 10:15:54;;;;;;;3.07;2.87;;;36.50;64.90;;;;;;5086367;28;20748;-77
2023/07/15 10:18:33;;;;;;;2.63;2.43;;;36.70;63.90;;;;;;5080682;28;20455;-77
2023/07/15 10:21:12;;;;;;;2.60;2.40;;;37.00;63.30;;;;;;5097333;28;20447;-78
2023/07/15 10:23:50;;;;;;;3.10;2.90;;;37.10;62.50;;;;;;5087622;28;20540;-78
2023/07/15 10:26:25;;;;;;;3.40;3.03;;;37.40;62.60;;;;;;5090457;28;20452;-79
2023/07/15 10:29:03;;;;;;;3.13;2.80;;;37.40;61.70;;;;;;5080233;28;20467;-79
2023/07/15 10:32:16;;;;;;;2.67;2.57;;;37.90;61.00;;;;;;5090216;28;20473;-78
2023/07/15 10:34:52;;;;;;;2.40;2.30;;;37.90;59.90;;;;;;5093708;28;20452;-78
2023/07/15 10:37:37;;;;;;;3.10;2.90;;;37.60;59.30;;;;;;5094525;28;20458;-78
2023/07/15 10:40:13;;;;;;;2.90;2.70;;;36.90;59.30;;;;;;5083644;28;20548;-78
2023/07/15 10:42:44;;;;;;;7.27;3.13;;;36.80;60.20;;;;;;5076330;28;20445;-78
2023/07/15 10:45:42;;;;;;;2.50;2.40;;;37.00;59.70;;;;;;5088677;28;20470;-77
2023/07/15 10:48:19;;;;;;;2.70;2.60;;;36.90;59.40;;;;;;5072496;28;20958;-78
2023/07/15 10:50:56;;;;;;;3.33;3.13;;;37.00;59.30;;;;;;5088825;28;20547;-77
2023/07/15 10:53:35;;;;;;;3.03;2.50;;;36.90;58.50;;;;;;5071781;28;20512;-77
2023/07/15 10:59:22;;;;;;;3.00;2.90;;;37.30;57.30;;;;;;5051006;28;20466;-79
2023/07/15 11:06:02;;;;;;;3.53;2.50;;;38.20;55.90;;;;;;5078629;28;20458;-79
2023/07/15 11:09:27;;;;;;;;;;;;;;;;;;;;;
2023/07/15 11:15:58;;;;;;;2.40;2.30;;;37.50;54.80;;;;;;5062296;28;20458;-78
2023/07/15 11:28:37;;;;;;;2.30;2.10;;;37.50;55.10;;;;;;5020977;28;20483;-78
2023/07/15 11:31:56;;;;;;;2.80;2.60;;;37.90;54.60;;;;;;5081622;28;20455;-78
2023/07/15 11:34:47;;;;;;;3.03;2.73;;;38.60;53.20;;;;;;5093395;28;20479;-79
2023/07/15 11:48:25;;;;;;;3.67;3.13;;;35.90;61.80;;;;;;4840091;29;20548;-77
2023/07/15 11:51:10;;;;;;;2.83;2.70;;;35.90;60.70;;;;;;4975176;28;20454;-77
2023/07/15 11:54:05;;;;;;;3.13;2.93;;;36.60;60.80;;;;;;4985049;28;20476;-78
2023/07/15 11:56:56;;;;;;;2.73;2.53;;;36.50;60.90;;;;;;5058540;28;20537;-78
2023/07/15 11:59:55;;;;;;;3.10;3.00;;;35.90;61.10;;;;;;5072876;28;20966;-79
2023/07/15 12:02:50;;;;;;;2.90;2.70;;;35.80;62.20;;;;;;5103741;28;20444;-77
2023/07/15 12:05:35;;;;;;;3.37;3.07;;;36.10;60.70;;;;;;5061650;28;20516;-77
2023/07/15 12:08:22;;;;;;;2.90;2.80;;;36.70;60.60;;;;;;5073990;28;20832;-79
2023/07/15 12:11:23;;;;;;;4.23;3.10;;;36.40;60.90;;;;;;5078355;28;20445;-80
2023/07/15 12:14:07;;;;;;;3.00;2.80;;;36.40;61.10;;;;;;5078374;28;20452;-79
2023/07/15 12:16:47;;;;;;;3.23;3.00;;;35.70;60.00;;;;;;5080891;28;20444;-79
2023/07/15 12:19:41;;;;;;;3.00;2.80;;;36.40;59.60;;;;;;5081132;28;20471;-79
2023/07/15 12:22:32;;;;;;;3.23;2.93;;;36.90;58.70;;;;;;5080462;28;20441;-79
2023/07/15 12:25:30;;;;;;;4.23;2.57;;;37.60;58.00;;;;;;5098415;28;20491;-79
2023/07/15 12:28:35;;;;;;;2.90;2.70;;;37.50;59.30;;;;;;5087525;28;20459;-79
2023/07/15 12:31:09;;;;;;;4.10;3.30;;;36.60;61.60;;;;;;5100634;28;20507;-76
2023/07/15 12:33:56;;;;;;;4.03;3.67;;;36.70;61.80;;;;;;5110572;28;20480;-78
2023/07/15 12:36:30;;;;;;;3.90;2.80;;;36.90;61.30;;;;;;5105419;28;20445;-77
2023/07/15 12:39:02;;;;;;;3.63;3.43;;;36.50;60.70;;;;;;5095960;28;20420;-78
2023/07/15 12:41:32;;;;;;;3.57;3.37;;;36.60;61.60;;;;;;5090331;28;20437;-77
2023/07/15 12:44:14;;;;;;;4.40;2.77;;;36.50;60.50;;;;;;5082239;28;20464;-78
2023/07/15 12:47:25;;;;;;;3.07;2.83;;;37.20;60.10;;;;;;5091974;28;20512;-79
2023/07/15 12:50:03;;;;;;;3.30;3.10;;;37.50;59.10;;;;;;5082978;28;20531;-78
2023/07/15 12:52:49;;;;;;;5.13;3.43;;;37.70;59.60;;;;;;5074994;28;20529;-78
2023/07/15 12:58:12;;;;;;;3.20;2.90;;;38.40;58.40;;;;;;5084729;28;20437;-77
2023/07/15 13:00:44;;;;;;;7.00;3.37;;;38.10;57.70;;;;;;5103335;28;20448;-76
2023/07/15 13:03:18;;;;;;;3.33;3.13;;;37.60;58.40;;;;;;5097125;28;20440;-80
2023/07/15 13:05:50;;;;;;;3.43;3.10;;;38.10;57.90;;;;;;5091367;28;20910;-78
2023/07/15 13:28:28;;;;;;;3.63;2.70;;;39.20;52.80;;;;;;4977300;28;20452;-79
2023/07/15 13:31:30;;;;;;;2.57;2.47;;;39.70;51.90;;;;;;5001465;28;20440;-80
2023/07/15 13:38:23;;;;;;;;;;;;;;;;;;;;;
2023/07/15 13:44:46;;;;;;;4.20;3.33;;;38.10;57.30;;;;;;4928865;29;20536;-78
2023/07/15 13:47:52;;;;;;;3.50;3.20;;;38.60;56.30;;;;;;4916341;29;20447;-79
2023/07/15 13:51:11;;;;;;;4.33;2.90;;;38.50;55.50;;;;;;4919015;29;20458;-77
2023/07/15 14:00:31;;;;;;;3.40;3.20;;;;;;;;;;4870884;29;20451;-78
2023/07/15 14:03:33;;;;;;;3.37;3.10;;;37.10;60.00;;;;;;4871294;29;20986;-78
2023/07/15 14:13:03;;;;;;;7.20;3.50;;;35.90;59.60;;;;;;4885330;29;20475;-78
2023/07/15 14:15:59;;;;;;;3.50;3.30;;;35.90;60.10;;;;;;4984196;28;20475;-78
2023/07/15 14:26:01;;;;;;;4.17;3.73;;;37.60;58.00;;;;;;5021778;28;20477;-79
2023/07/15 14:31:19;;;;;;;3.73;3.50;;;37.10;58.50;;;;;;4966259;28;20445;-78
2023/07/15 14:34:05;;;;;;;3.30;3.10;;;37.30;58.40;;;;;;5053392;28;20473;-78
2023/07/15 14:39:37;;;;;;;3.83;3.53;;;35.70;60.40;;;;;;5074050;28;20471;-77
2023/07/15 14:42:54;;;;;;;4.23;3.80;;;35.40;61.20;;;;;;5102607;28;20460;-78
2023/07/15 15:11:58;;;;;;;6.43;4.60;;;32.10;70.70;;;;;;4815995;29;20464;-79
2023/07/15 15:14:38;;;;;;;6.83;4.43;;;31.20;72.50;;;;;;4938410;28;20474;-79
2023/07/15 15:17:19;;;;;;;4.90;4.20;;;31.00;73.50;;;;;;4943880;29;20427;-78
2023/07/15 15:22:49;;;;;;;6.80;4.40;;;31.00;75.00;;;;;;4957678;28;20442;-77
2023/07/15 15:25:37;;;;;;;6.00;4.77;;;30.80;76.80;;;;;;4957623;28;20926;-78
2023/07/15 15:29:06;;;;;;;;;;;;;;;;;;;;;
2023/07/15 15:45:29;;;;;;;7.23;4.97;;;29.50;92.20;;;;;;4958769;29;20497;-76
2023/07/15 15:48:09;;;;;;;7.17;5.30;;;29.30;92.70;;;;;;4943775;28;20546;-78
2023/07/15 15:50:57;;;;;;;6.07;5.63;;;29.20;94.20;;;;;;5051235;28;20464;-78
2023/07/15 15:54:04;;;;;;;5.03;4.53;;;29.10;94.60;;;;;;5048132;28;20612;-79
2023/07/15 16:03:11;;;;;;;;;;;;;;;;;;;;;
2023/07/15 16:09:33;;;;;;;5.97;4.80;;;29.10;94.70;;;;;;5062755;28;20505;-79
2023/07/15 16:12:26;;;;;;;5.33;4.83;;;29.20;94.60;;;;;;5083165;28;20534;-78
2023/07/15 16:15:34;;;;;;;6.77;5.40;;;29.30;94.60;;;;;;5095652;28;20475;-78
2023/07/15 16:18:50;;;;;;;8.00;5.30;;;29.50;94.20;;;;;;5056305;28;20450;-78
2023/07/15 16:21:44;;;;;;;5.30;4.80;;;29.60;93.80;;;;;;5086013;28;20912;-78
2023/07/15 16:24:20;;;;;;;6.37;5.73;;;29.30;94.00;;;;;;5083339;28;20472;-78
2023/07/15 16:27:01;;;;;;;6.20;5.70;;;29.40;94.40;;;;;;5094614;28;20530;-78
2023/07/15 16:32:40;;;;;;;9.30;6.23;;;29.30;95.10;;;;;;5075184;28;20444;-78
2023/07/15 16:35:26;;;;;;;8.03;5.90;;;29.00;95.80;;;;;;5074224;28;20476;-77
2023/07/15 16:37:56;;;;;;;6.50;5.90;;;29.00;96.50;;;;;;5084427;28;20490;-78
2023/07/15 16:40:30;;;;;;;8.03;5.80;;;29.10;97.10;;;;;;5088281;28;20471;-78
2023/07/15 16:43:03;;;;;;;12.57;11.33;;;29.20;97.50;;;;;;5079283;28;20547;-77
2023/07/15 16:45:31;;;;;;;6.50;5.90;;;29.30;97.70;;;;;;5078664;28;20456;-80
2023/07/15 16:48:20;;;;;;;8.23;6.67;;;29.30;98.10;;;;;;5082273;28;20757;-77
2023/07/15 16:50:58;;;;;;;7.80;6.57;;;29.40;98.30;;;;;;5085694;28;20863;-80
2023/07/15 16:53:29;;;;;;;6.90;5.27;;;29.00;99.50;;;;;;5088605;28;20482;-79
2023/07/15 16:56:12;;;;;;;7.30;5.50;;;28.90;99.90;;;;;;5077654;28;20462;-80
2023/07/15 17:02:00;;;;;;;5.53;5.13;;;28.90;99.90;;;;;;5078459;28;20421;-80
2023/07/15 17:07:57;;;;;;;5.90;5.30;;;29.10;99.90;;;;;;5082396;28;20513;-78
2023/07/15 17:10:39;;;;;;;5.33;4.70;;;29.50;99.90;;;;;;5081824;28;20501;-77
2023/07/15 17:19:21;;;;;;;8.60;5.80;;;28.80;99.90;;;;;;5098805;28;20919;-78
2023/07/15 17:22:33;;;;;;;6.60;6.03;;;28.60;99.90;;;;;;5078956;28;20484;-79
2023/07/15 17:25:29;;;;;;;11.77;5.90;;;28.70;99.90;;;;;;5070548;28;20507;-78
2023/07/15 17:28:32;;;;;;;9.10;6.30;;;28.90;99.90;;;;;;5098848;28;20456;-79
2023/07/15 17:40:28;;;;;;;6.10;5.60;;;28.90;99.90;;;;;;5097553;28;20447;-78
2023/07/15 17:43:51;;;;;;;6.03;5.43;;;28.90;99.90;;;;;;5086282;28;20447;-78
2023/07/15 17:46:53;;;;;;;7.83;7.10;;;28.90;99.90;;;;;;5057486;28;20473;-79
2023/07/15 17:56:06;;;;;;;6.40;5.80;;;28.70;99.90;;;;;;5077277;28;20490;-76